الكل
Fisher County Airport (Rotan/Roby, TX) 56F حالة الطقس
There is no TAF data available at 56F or any nearby airports.
There is no METAR data available at 56F. Showing METAR data for KSWW (25 mi جنوب).
محفوظات أحدث تقرير روتيني عن حالة الطقس من أجل الطيران (الميتار) SWW ( لا توجد بيانات لـ56F)
| Date | Time (CDT) | Flight Rules | Wind Dir. | Speed | Type | Height AGL (ft) | Visibility | Temp (°C) | Temp (°F) | Dew Point (°C) | Dew Point (°F) | Rel. Humid. | Pressure | Density Altitude | Remarks |
|---|---|---|---|---|---|---|---|---|---|---|---|---|---|---|---|
| 06-سبت | 15:15 | VFR | 80° | 6 kt | 10 miles | 38° | 100° | 15° | 59° | 25% | 29.99 in Hg | 5,544 ft | |||
| 06-سبت | 14:55 | VFR | 100° | 9 kt | 10 miles | 38° | 100° | 15° | 59° | 25% | 30.00 in Hg | 5,534 ft | |||
| 06-سبت | 14:15 | VFR | 80° | 6 kt | 10 miles | 37° | 98° | 15° | 59° | 27% | 30.02 in Hg | 5,394 ft | |||
| 06-سبت | 13:55 | VFR | 110° | 8 kt | 10 miles | 37° | 98° | 15° | 59° | 27% | 30.02 in Hg | 5,394 ft | |||
| 06-سبت | 13:35 | VFR | 130° | 6 kt | 10 miles | 37° | 98° | 15° | 59° | 28% | 30.03 in Hg | 5,384 ft | Wind gusting to 15 KT | ||
| 06-سبت | 13:15 | VFR | 150° | 8 kt | 10 miles | 36° | 96° | 15° | 59° | 29% | 30.04 in Hg | 5,254 ft | Wind gusting to 16 KT | ||
| 06-سبت | 12:55 | VFR | 130° | 6 kt | 10 miles | 36° | 96° | 15° | 59° | 29% | 30.05 in Hg | 5,244 ft | Wind gusting to 17 KT | ||
| 06-سبت | 12:35 | VFR | 90° | 7 kt | 10 miles | 34° | 93° | 15° | 59° | 31% | 30.05 in Hg | 5,004 ft | |||
| 06-سبت | 12:15 | VFR | 110° | 8 kt | 10 miles | 35° | 95° | 15° | 59° | 30% | 30.06 in Hg | 5,114 ft | |||
| 06-سبت | 11:55 | VFR | 110° | 7 kt | 10 miles | 34° | 93° | 15° | 59° | 32% | 30.06 in Hg | 4,994 ft | Wind gusting to 14 KT | ||
| 06-سبت | 11:35 | VFR | 130° | 6 kt | 10 miles | 34° | 93° | 15° | 59° | 32% | 30.06 in Hg | 4,994 ft | |||
| 06-سبت | 11:15 | VFR | 150° | 5 kt | 10 miles | 35° | 95° | 16° | 60° | 32% | 30.06 in Hg | 5,114 ft | |||
| 06-سبت | 10:55 | VFR | Calm | 10 miles | 34° | 93° | 17° | 62° | 38% | 30.06 in Hg | 4,994 ft | ||||
| 06-سبت | 10:35 | VFR | Calm | 10 miles | 33° | 91° | 18° | 64° | 41% | 30.06 in Hg | 4,874 ft | ||||
| 06-سبت | 10:15 | VFR | 200° | 3 kt | 10 miles | 32° | 89° | 18° | 64° | 45% | 30.06 in Hg | 4,754 ft | |||
| 06-سبت | 09:55 | VFR | 210° | 4 kt | 10 miles | 31° | 87° | 18° | 64° | 47% | 30.06 in Hg | 4,634 ft | |||
| 06-سبت | 09:35 | VFR | 190° | 3 kt | 10 miles | 30° | 86° | 19° | 66° | 49% | 30.06 in Hg | 4,514 ft | |||
| 06-سبت | 09:15 | VFR | Calm | 10 miles | 28° | 82° | 19° | 66° | 55% | 30.06 in Hg | 4,274 ft | ||||
| 06-سبت | 08:55 | VFR | 190° | 3 kt | 10 miles | 28° | 82° | 18° | 64° | 56% | 30.05 in Hg | 4,284 ft | |||
| 06-سبت | 08:35 | VFR | Calm | 10 miles | 28° | 82° | 19° | 66° | 61% | 30.05 in Hg | 4,284 ft | ||||
| 06-سبت | 08:15 | VFR | Calm | 10 miles | 26° | 78° | 19° | 66° | 63% | 30.05 in Hg | 4,044 ft | ||||
| 06-سبت | 07:55 | VFR | 200° | 3 kt | 10 miles | 25° | 77° | 18° | 64° | 66% | 30.04 in Hg | 3,934 ft | |||
| 06-سبت | 07:35 | VFR | 200° | 4 kt | 10 miles | 24° | 75° | 18° | 64° | 67% | 30.03 in Hg | 3,824 ft | |||
| 06-سبت | 07:15 | VFR | 200° | 4 kt | 10 miles | 24° | 75° | 17° | 62° | 66% | 30.03 in Hg | 3,824 ft |
تسجيل الدخول
| مُتصفحك غير مُدعَّم. قم بترقية متصفحك |
